sensor_id;sensor_type;location;lat;lon;timestamp;temperature;humidity
67279;DHT22;54193;53.746;10.058;2023-02-15T00:01:08;2.86;96.17
67279;DHT22;54193;53.746;10.058;2023-02-15T00:03:54;2.87;96.17
67279;DHT22;54193;53.746;10.058;2023-02-15T00:06:40;2.94;96.23
67279;DHT22;54193;53.746;10.058;2023-02-15T00:09:25;2.97;96.23
67279;DHT22;54193;53.746;10.058;2023-02-15T00:12:11;2.94;96.28
67279;DHT22;54193;53.746;10.058;2023-02-15T00:14:56;2.97;96.27
67279;DHT22;54193;53.746;10.058;2023-02-15T00:17:42;2.97;96.30
67279;DHT22;54193;53.746;10.058;2023-02-15T00:20:28;2.97;96.32
67279;DHT22;54193;53.746;10.058;2023-02-15T00:23:13;3.04;96.35
67279;DHT22;54193;53.746;10.058;2023-02-15T00:26:12;2.99;96.40
67279;DHT22;54193;53.746;10.058;2023-02-15T00:28:58;3.00;96.44
67279;DHT22;54193;53.746;10.058;2023-02-15T00:31:44;3.04;96.44
67279;DHT22;54193;53.746;10.058;2023-02-15T00:34:30;3.08;96.47
67279;DHT22;54193;53.746;10.058;2023-02-15T00:37:15;3.11;96.43
67279;DHT22;54193;53.746;10.058;2023-02-15T00:40:01;3.13;96.45
67279;DHT22;54193;53.746;10.058;2023-02-15T00:42:47;3.14;96.49
67279;DHT22;54193;53.746;10.058;2023-02-15T00:45:32;3.15;96.51
67279;DHT22;54193;53.746;10.058;2023-02-15T00:48:18;3.17;96.52
67279;DHT22;54193;53.746;10.058;2023-02-15T00:51:04;3.18;96.47
67279;DHT22;54193;53.746;10.058;2023-02-15T00:53:50;3.27;96.45
67279;DHT22;54193;53.746;10.058;2023-02-15T00:56:37;3.21;96.52
67279;DHT22;54193;53.746;10.058;2023-02-15T00:59:22;3.24;96.57
67279;DHT22;54193;53.746;10.058;2023-02-15T01:02:08;3.20;96.59
67279;DHT22;54193;53.746;10.058;2023-02-15T01:04:54;3.24;96.55
67279;DHT22;54193;53.746;10.058;2023-02-15T01:07:39;3.21;96.58
67279;DHT22;54193;53.746;10.058;2023-02-15T01:10:26;3.20;96.63
67279;DHT22;54193;53.746;10.058;2023-02-15T01:13:12;3.18;96.60
67279;DHT22;54193;53.746;10.058;2023-02-15T01:15:57;3.27;96.62
67279;DHT22;54193;53.746;10.058;2023-02-15T01:18:43;3.21;96.60
67279;DHT22;54193;53.746;10.058;2023-02-15T01:21:29;3.22;96.68
67279;DHT22;54193;53.746;10.058;2023-02-15T01:24:15;3.25;96.67
67279;DHT22;54193;53.746;10.058;2023-02-15T01:27:01;3.25;96.69
67279;DHT22;54193;53.746;10.058;2023-02-15T01:29:46;3.21;96.70
67279;DHT22;54193;53.746;10.058;2023-02-15T01:32:32;3.25;96.67
67279;DHT22;54193;53.746;10.058;2023-02-15T01:35:18;3.31;96.66
67279;DHT22;54193;53.746;10.058;2023-02-15T01:38:04;3.31;96.66
67279;DHT22;54193;53.746;10.058;2023-02-15T01:40:53;3.30;96.67
67279;DHT22;54193;53.746;10.058;2023-02-15T01:44:01;3.36;96.71
67279;DHT22;54193;53.746;10.058;2023-02-15T01:46:51;3.32;96.67
67279;DHT22;54193;53.746;10.058;2023-02-15T01:49:39;3.34;96.69
67279;DHT22;54193;53.746;10.058;2023-02-15T01:52:28;3.41;96.73
67279;DHT22;54193;53.746;10.058;2023-02-15T01:55:14;3.41;96.67
67279;DHT22;54193;53.746;10.058;2023-02-15T01:58:00;3.48;96.67
67279;DHT22;54193;53.746;10.058;2023-02-15T02:00:46;3.42;96.67
67279;DHT22;54193;53.746;10.058;2023-02-15T02:06:57;3.39;96.73
67279;DHT22;54193;53.746;10.058;2023-02-15T02:09:44;3.42;96.73
67279;DHT22;54193;53.746;10.058;2023-02-15T02:12:30;3.36;96.72
67279;DHT22;54193;53.746;10.058;2023-02-15T02:15:16;3.36;96.73
67279;DHT22;54193;53.746;10.058;2023-02-15T02:31:03;3.38;96.76
67279;DHT22;54193;53.746;10.058;2023-02-15T02:40:16;3.39;96.80
67279;DHT22;54193;53.746;10.058;2023-02-15T02:43:20;3.41;96.85
67279;DHT22;54193;53.746;10.058;2023-02-15T02:46:14;3.35;96.89
67279;DHT22;54193;53.746;10.058;2023-02-15T02:49:01;3.36;96.88
67279;DHT22;54193;53.746;10.058;2023-02-15T02:51:46;3.38;96.88
67279;DHT22;54193;53.746;10.058;2023-02-15T02:54:34;3.39;96.88
67279;DHT22;54193;53.746;10.058;2023-02-15T02:57:22;3.35;96.87
67279;DHT22;54193;53.746;10.058;2023-02-15T03:00:10;3.30;96.90
67279;DHT22;54193;53.746;10.058;2023-02-15T03:03:01;3.31;96.95
67279;DHT22;54193;53.746;10.058;2023-02-15T03:05:53;3.38;96.98
67279;DHT22;54193;53.746;10.058;2023-02-15T03:08:48;3.31;96.95
67279;DHT22;54193;53.746;10.058;2023-02-15T03:11:34;3.25;96.98
67279;DHT22;54193;53.746;10.058;2023-02-15T03:14:20;3.31;97.00
67279;DHT22;54193;53.746;10.058;2023-02-15T03:17:07;3.28;96.92
67279;DHT22;54193;53.746;10.058;2023-02-15T03:19:56;3.36;96.94
67279;DHT22;54193;53.746;10.058;2023-02-15T03:22:48;3.36;96.89
67279;DHT22;54193;53.746;10.058;2023-02-15T03:25:42;3.41;96.93
67279;DHT22;54193;53.746;10.058;2023-02-15T03:28:36;3.35;96.89
67279;DHT22;54193;53.746;10.058;2023-02-15T03:31:26;3.30;96.87
67279;DHT22;54193;53.746;10.058;2023-02-15T03:34:15;3.34;96.92
67279;DHT22;54193;53.746;10.058;2023-02-15T03:37:10;3.28;96.91
67279;DHT22;54193;53.746;10.058;2023-02-15T03:44:08;3.25;96.92
67279;DHT22;54193;53.746;10.058;2023-02-15T03:46:47;3.34;96.93
67279;DHT22;54193;53.746;10.058;2023-02-15T03:49:40;3.34;96.91
67279;DHT22;54193;53.746;10.058;2023-02-15T03:52:28;3.35;96.96
67279;DHT22;54193;53.746;10.058;2023-02-15T03:55:15;3.32;96.95
67279;DHT22;54193;53.746;10.058;2023-02-15T03:58:00;3.28;96.92
67279;DHT22;54193;53.746;10.058;2023-02-15T04:01:52;3.36;96.89
67279;DHT22;54193;53.746;10.058;2023-02-15T04:04:36;3.35;96.90
67279;DHT22;54193;53.746;10.058;2023-02-15T04:07:22;3.35;96.96
67279;DHT22;54193;53.746;10.058;2023-02-15T04:10:08;3.35;96.97
67279;DHT22;54193;53.746;10.058;2023-02-15T04:13:12;3.34;96.95
67279;DHT22;54193;53.746;10.058;2023-02-15T04:15:58;3.35;96.99
67279;DHT22;54193;53.746;10.058;2023-02-15T04:18:50;3.36;96.95
67279;DHT22;54193;53.746;10.058;2023-02-15T04:21:56;3.35;96.87
67279;DHT22;54193;53.746;10.058;2023-02-15T04:25:00;3.36;96.87
67279;DHT22;54193;53.746;10.058;2023-02-15T04:27:54;3.32;96.86
67279;DHT22;54193;53.746;10.058;2023-02-15T04:30:40;3.31;96.90
67279;DHT22;54193;53.746;10.058;2023-02-15T04:33:26;3.28;96.92
67279;DHT22;54193;53.746;10.058;2023-02-15T04:36:11;3.25;96.95
67279;DHT22;54193;53.746;10.058;2023-02-15T04:38:57;3.24;96.95
67279;DHT22;54193;53.746;10.058;2023-02-15T04:41:43;3.22;96.94
67279;DHT22;54193;53.746;10.058;2023-02-15T04:44:29;3.17;96.91
67279;DHT22;54193;53.746;10.058;2023-02-15T04:47:15;3.28;96.92
67279;DHT22;54193;53.746;10.058;2023-02-15T04:50:00;3.25;96.94
67279;DHT22;54193;53.746;10.058;2023-02-15T04:52:46;3.07;96.80
67279;DHT22;54193;53.746;10.058;2023-02-15T04:55:32;3.17;96.92
67279;DHT22;54193;53.746;10.058;2023-02-15T04:58:17;3.18;96.88
67279;DHT22;54193;53.746;10.058;2023-02-15T05:01:03;3.30;96.87
67279;DHT22;54193;53.746;10.058;2023-02-15T05:03:48;3.34;96.87
67279;DHT22;54193;53.746;10.058;2023-02-15T05:06:34;3.34;96.88
67279;DHT22;54193;53.746;10.058;2023-02-15T05:09:20;3.34;96.90
67279;DHT22;54193;53.746;10.058;2023-02-15T05:12:06;3.32;96.90
67279;DHT22;54193;53.746;10.058;2023-02-15T05:14:51;3.34;96.88
67279;DHT22;54193;53.746;10.058;2023-02-15T05:17:37;3.31;96.87
67279;DHT22;54193;53.746;10.058;2023-02-15T05:20:23;3.22;96.94
67279;DHT22;54193;53.746;10.058;2023-02-15T05:23:09;3.21;96.96
67279;DHT22;54193;53.746;10.058;2023-02-15T05:25:54;3.21;96.98
67279;DHT22;54193;53.746;10.058;2023-02-15T05:28:59;3.18;96.96
67279;DHT22;54193;53.746;10.058;2023-02-15T05:31:44;3.18;96.98
67279;DHT22;54193;53.746;10.058;2023-02-15T05:34:32;3.10;96.98
67279;DHT22;54193;53.746;10.058;2023-02-15T05:37:18;3.10;96.98
67279;DHT22;54193;53.746;10.058;2023-02-15T05:40:04;3.14;96.95
67279;DHT22;54193;53.746;10.058;2023-02-15T05:42:50;3.13;97.02
67279;DHT22;54193;53.746;10.058;2023-02-15T05:45:36;3.17;96.97
67279;DHT22;54193;53.746;10.058;2023-02-15T05:48:24;3.10;96.99
67279;DHT22;54193;53.746;10.058;2023-02-15T05:51:12;3.13;97.02
67279;DHT22;54193;53.746;10.058;2023-02-15T05:53:58;3.08;96.98
67279;DHT22;54193;53.746;10.058;2023-02-15T05:56:44;3.07;97.00
67279;DHT22;54193;53.746;10.058;2023-02-15T05:59:29;3.04;97.05
67279;DHT22;54193;53.746;10.058;2023-02-15T06:02:15;3.03;97.01
67279;DHT22;54193;53.746;10.058;2023-02-15T06:05:00;3.07;96.90
67279;DHT22;54193;53.746;10.058;2023-02-15T06:07:48;3.08;96.89
67279;DHT22;54193;53.746;10.058;2023-02-15T06:10:34;3.14;96.88
67279;DHT22;54193;53.746;10.058;2023-02-15T06:13:19;3.20;96.89
67279;DHT22;54193;53.746;10.058;2023-02-15T06:16:06;3.05;96.83
67279;DHT22;54193;53.746;10.058;2023-02-15T06:18:52;3.11;96.83
67279;DHT22;54193;53.746;10.058;2023-02-15T06:21:37;3.15;96.85
67279;DHT22;54193;53.746;10.058;2023-02-15T06:24:23;3.20;96.83
67279;DHT22;54193;53.746;10.058;2023-02-15T06:27:09;3.14;96.83
67279;DHT22;54193;53.746;10.058;2023-02-15T06:29:55;3.15;96.87
67279;DHT22;54193;53.746;10.058;2023-02-15T06:32:41;3.10;96.90
67279;DHT22;54193;53.746;10.058;2023-02-15T06:35:26;3.07;96.94
67279;DHT22;54193;53.746;10.058;2023-02-15T06:38:12;3.04;96.96
67279;DHT22;54193;53.746;10.058;2023-02-15T06:40:58;3.08;96.94
67279;DHT22;54193;53.746;10.058;2023-02-15T06:43:43;3.08;96.96
67279;DHT22;54193;53.746;10.058;2023-02-15T06:46:29;3.05;96.95
67279;DHT22;54193;53.746;10.058;2023-02-15T06:49:15;3.04;96.96
67279;DHT22;54193;53.746;10.058;2023-02-15T06:52:00;3.04;96.94
67279;DHT22;54193;53.746;10.058;2023-02-15T06:54:46;3.05;96.93
67279;DHT22;54193;53.746;10.058;2023-02-15T06:57:32;2.89;96.90
67279;DHT22;54193;53.746;10.058;2023-02-15T07:00:18;2.87;96.88
67279;DHT22;54193;53.746;10.058;2023-02-15T07:03:04;2.94;96.84
67279;DHT22;54193;53.746;10.058;2023-02-15T07:05:54;2.97;96.85
67279;DHT22;54193;53.746;10.058;2023-02-15T07:08:40;2.92;96.81
67279;DHT22;54193;53.746;10.058;2023-02-15T07:11:25;2.87;96.85
67279;DHT22;54193;53.746;10.058;2023-02-15T07:14:29;2.90;96.86
67279;DHT22;54193;53.746;10.058;2023-02-15T07:17:15;2.97;96.86
67279;DHT22;54193;53.746;10.058;2023-02-15T07:20:06;3.00;96.82
67279;DHT22;54193;53.746;10.058;2023-02-15T07:22:53;3.04;96.79
67279;DHT22;54193;53.746;10.058;2023-02-15T07:25:38;3.14;96.76
67279;DHT22;54193;53.746;10.058;2023-02-15T07:28:24;3.13;96.76
67279;DHT22;54193;53.746;10.058;2023-02-15T07:31:10;3.00;96.75
67279;DHT22;54193;53.746;10.058;2023-02-15T07:33:55;2.99;96.73
67279;DHT22;54193;53.746;10.058;2023-02-15T07:36:41;2.96;96.67
67279;DHT22;54193;53.746;10.058;2023-02-15T07:39:29;3.00;96.66
67279;DHT22;54193;53.746;10.058;2023-02-15T07:42:14;3.01;96.71
67279;DHT22;54193;53.746;10.058;2023-02-15T07:45:00;3.05;96.65
67279;DHT22;54193;53.746;10.058;2023-02-15T07:47:46;3.04;96.59
67279;DHT22;54193;53.746;10.058;2023-02-15T07:50:32;3.10;96.55
67279;DHT22;54193;53.746;10.058;2023-02-15T07:53:17;3.01;96.49
67279;DHT22;54193;53.746;10.058;2023-02-15T07:56:05;2.89;96.43
67279;DHT22;54193;53.746;10.058;2023-02-15T07:58:51;2.96;96.49
67279;DHT22;54193;53.746;10.058;2023-02-15T08:01:38;2.96;96.44
67279;DHT22;54193;53.746;10.058;2023-02-15T08:04:24;3.00;96.42
67279;DHT22;54193;53.746;10.058;2023-02-15T08:07:10;2.93;96.39
67279;DHT22;54193;53.746;10.058;2023-02-15T08:09:55;2.97;96.34
67279;DHT22;54193;53.746;10.058;2023-02-15T08:12:41;2.94;96.32
67279;DHT22;54193;53.746;10.058;2023-02-15T08:15:26;2.90;96.24
67279;DHT22;54193;53.746;10.058;2023-02-15T08:18:12;2.83;96.22
67279;DHT22;54193;53.746;10.058;2023-02-15T08:20:58;2.71;96.18
67279;DHT22;54193;53.746;10.058;2023-02-15T08:23:43;2.83;96.30
67279;DHT22;54193;53.746;10.058;2023-02-15T08:26:30;2.83;96.23
67279;DHT22;54193;53.746;10.058;2023-02-15T08:29:25;2.89;96.31
67279;DHT22;54193;53.746;10.058;2023-02-15T08:32:12;2.76;96.18
67279;DHT22;54193;53.746;10.058;2023-02-15T08:34:58;2.72;96.16
67279;DHT22;54193;53.746;10.058;2023-02-15T08:37:43;2.66;96.11
67279;DHT22;54193;53.746;10.058;2023-02-15T08:40:30;2.66;96.06
67279;DHT22;54193;53.746;10.058;2023-02-15T08:43:16;2.63;96.07
67279;DHT22;54193;53.746;10.058;2023-02-15T08:46:02;2.53;95.99
67279;DHT22;54193;53.746;10.058;2023-02-15T08:48:48;2.69;96.05
67279;DHT22;54193;53.746;10.058;2023-02-15T08:51:36;2.73;95.98
67279;DHT22;54193;53.746;10.058;2023-02-15T08:54:22;2.86;95.91
67279;DHT22;54193;53.746;10.058;2023-02-15T08:57:08;2.92;95.90
67279;DHT22;54193;53.746;10.058;2023-02-15T08:59:53;2.96;95.74
67279;DHT22;54193;53.746;10.058;2023-02-15T09:02:40;3.03;95.69
67279;DHT22;54193;53.746;10.058;2023-02-15T09:05:25;3.13;95.63
67279;DHT22;54193;53.746;10.058;2023-02-15T09:08:11;3.04;95.34
67279;DHT22;54193;53.746;10.058;2023-02-15T09:11:12;3.14;95.37
67279;DHT22;54193;53.746;10.058;2023-02-15T09:14:01;3.11;95.21
67279;DHT22;54193;53.746;10.058;2023-02-15T09:16:48;3.08;95.04
67279;DHT22;54193;53.746;10.058;2023-02-15T09:19:36;3.21;95.11
67279;DHT22;54193;53.746;10.058;2023-02-15T09:22:22;3.20;94.89
67279;DHT22;54193;53.746;10.058;2023-02-15T09:25:08;3.28;94.87
67279;DHT22;54193;53.746;10.058;2023-02-15T09:27:53;3.31;94.82
67279;DHT22;54193;53.746;10.058;2023-02-15T09:30:39;3.31;94.74
67279;DHT22;54193;53.746;10.058;2023-02-15T09:33:25;3.48;94.66
67279;DHT22;54193;53.746;10.058;2023-02-15T09:36:17;3.56;94.54
67279;DHT22;54193;53.746;10.058;2023-02-15T09:39:13;3.21;94.10
67279;DHT22;54193;53.746;10.058;2023-02-15T09:42:24;3.07;94.17
67279;DHT22;54193;53.746;10.058;2023-02-15T09:45:22;3.25;94.58
67279;DHT22;54193;53.746;10.058;2023-02-15T09:48:19;3.35;94.58
67279;DHT22;54193;53.746;10.058;2023-02-15T09:51:35;3.46;94.56
67279;DHT22;54193;53.746;10.058;2023-02-15T09:57:46;3.51;94.55
67279;DHT22;54193;53.746;10.058;2023-02-15T10:00:44;3.56;94.49
67279;DHT22;54193;53.746;10.058;2023-02-15T10:07:04;3.79;94.35
67279;DHT22;54193;53.746;10.058;2023-02-15T10:10:02;3.80;94.15
67279;DHT22;54193;53.746;10.058;2023-02-15T10:15:56;3.78;93.73
67279;DHT22;54193;53.746;10.058;2023-02-15T10:18:57;3.68;93.89
67279;DHT22;54193;53.746;10.058;2023-02-15T10:27:46;3.76;94.03
67279;DHT22;54193;53.746;10.058;2023-02-15T10:33:41;3.98;93.90
67279;DHT22;54193;53.746;10.058;2023-02-15T10:36:59;4.10;93.79
67279;DHT22;54193;53.746;10.058;2023-02-15T10:46:27;4.14;93.61
67279;DHT22;54193;53.746;10.058;2023-02-15T10:49:26;4.34;93.55
67279;DHT22;54193;53.746;10.058;2023-02-15T11:07:40;4.21;92.84
67279;DHT22;54193;53.746;10.058;2023-02-15T11:10:39;4.40;93.19
67279;DHT22;54193;53.746;10.058;2023-02-15T11:13:29;4.34;92.99
67279;DHT22;54193;53.746;10.058;2023-02-15T11:16:23;4.38;93.16
67279;DHT22;54193;53.746;10.058;2023-02-15T11:19:25;4.38;92.95
67279;DHT22;54193;53.746;10.058;2023-02-15T11:22:13;4.27;92.93
67279;DHT22;54193;53.746;10.058;2023-02-15T11:24:59;4.24;93.07
67279;DHT22;54193;53.746;10.058;2023-02-15T11:27:47;4.28;93.17
67279;DHT22;54193;53.746;10.058;2023-02-15T11:30:42;4.58;93.34
67279;DHT22;54193;53.746;10.058;2023-02-15T11:33:34;4.56;93.02
67279;DHT22;54193;53.746;10.058;2023-02-15T11:36:25;4.63;93.08
67279;DHT22;54193;53.746;10.058;2023-02-15T11:39:15;4.69;92.65
67279;DHT22;54193;53.746;10.058;2023-02-15T11:42:11;4.83;92.61
67279;DHT22;54193;53.746;10.058;2023-02-15T11:45:17;4.83;92.29
67279;DHT22;54193;53.746;10.058;2023-02-15T11:48:14;4.73;92.96
67279;DHT22;54193;53.746;10.058;2023-02-15T11:51:01;4.89;92.41
67279;DHT22;54193;53.746;10.058;2023-02-15T11:53:49;4.99;92.45
67279;DHT22;54193;53.746;10.058;2023-02-15T11:56:35;5.07;92.44
67279;DHT22;54193;53.746;10.058;2023-02-15T11:59:32;5.10;92.24
67279;DHT22;54193;53.746;10.058;2023-02-15T12:02:22;5.07;92.22
67279;DHT22;54193;53.746;10.058;2023-02-15T12:05:17;5.07;92.09
67279;DHT22;54193;53.746;10.058;2023-02-15T12:08:20;5.14;91.99
67279;DHT22;54193;53.746;10.058;2023-02-15T12:11:09;5.07;91.65
67279;DHT22;54193;53.746;10.058;2023-02-15T12:14:02;5.10;91.97
67279;DHT22;54193;53.746;10.058;2023-02-15T12:16:50;5.18;92.16
67279;DHT22;54193;53.746;10.058;2023-02-15T12:19:38;5.28;91.88
67279;DHT22;54193;53.746;10.058;2023-02-15T12:22:29;5.24;91.91
67279;DHT22;54193;53.746;10.058;2023-02-15T12:25:26;5.26;91.90
67279;DHT22;54193;53.746;10.058;2023-02-15T12:28:41;5.13;91.63
67279;DHT22;54193;53.746;10.058;2023-02-15T12:31:32;5.03;92.12
67279;DHT22;54193;53.746;10.058;2023-02-15T12:34:29;5.03;92.06
67279;DHT22;54193;53.746;10.058;2023-02-15T12:37:23;5.16;92.22
67279;DHT22;54193;53.746;10.058;2023-02-15T12:43:25;5.06;92.32
67279;DHT22;54193;53.746;10.058;2023-02-15T12:46:22;5.20;92.53
67279;DHT22;54193;53.746;10.058;2023-02-15T12:49:19;5.20;92.25
67279;DHT22;54193;53.746;10.058;2023-02-15T12:52:24;5.21;92.47
67279;DHT22;54193;53.746;10.058;2023-02-15T12:55:32;5.18;92.56
67279;DHT22;54193;53.746;10.058;2023-02-15T12:58:20;5.11;92.77
67279;DHT22;54193;53.746;10.058;2023-02-15T13:01:17;5.16;92.76
67279;DHT22;54193;53.746;10.058;2023-02-15T13:07:02;5.28;92.99
67279;DHT22;54193;53.746;10.058;2023-02-15T13:09:49;5.21;92.65
67279;DHT22;54193;53.746;10.058;2023-02-15T13:12:35;5.18;92.76
67279;DHT22;54193;53.746;10.058;2023-02-15T13:15:40;5.26;92.88
67279;DHT22;54193;53.746;10.058;2023-02-15T13:18:32;5.45;92.85
67279;DHT22;54193;53.746;10.058;2023-02-15T13:21:23;5.62;92.41
67279;DHT22;54193;53.746;10.058;2023-02-15T13:24:36;5.63;92.16
67279;DHT22;54193;53.746;10.058;2023-02-15T13:27:37;5.56;92.18
67279;DHT22;54193;53.746;10.058;2023-02-15T13:30:26;5.60;91.84
67279;DHT22;54193;53.746;10.058;2023-02-15T13:33:33;5.89;92.11
67279;DHT22;54193;53.746;10.058;2023-02-15T13:36:26;6.04;91.85
67279;DHT22;54193;53.746;10.058;2023-02-15T13:48:55;6.35;91.04
67279;DHT22;54193;53.746;10.058;2023-02-15T13:52:08;6.09;91.04
67279;DHT22;54193;53.746;10.058;2023-02-15T13:55:23;5.87;91.56
67279;DHT22;54193;53.746;10.058;2023-02-15T13:58:32;5.75;91.74
67279;DHT22;54193;53.746;10.058;2023-02-15T14:01:34;5.72;92.08
67279;DHT22;54193;53.746;10.058;2023-02-15T14:13:42;5.85;92.46
67279;DHT22;54193;53.746;10.058;2023-02-15T14:16:54;5.87;92.45
67279;DHT22;54193;53.746;10.058;2023-02-15T14:19:49;5.85;92.32
67279;DHT22;54193;53.746;10.058;2023-02-15T14:22:42;5.99;92.43
67279;DHT22;54193;53.746;10.058;2023-02-15T14:25:38;5.97;92.26
67279;DHT22;54193;53.746;10.058;2023-02-15T14:28:34;5.92;92.29
67279;DHT22;54193;53.746;10.058;2023-02-15T14:31:45;5.85;92.37
67279;DHT22;54193;53.746;10.058;2023-02-15T14:34:57;5.72;92.39
67279;DHT22;54193;53.746;10.058;2023-02-15T14:40:54;5.69;92.90
67279;DHT22;54193;53.746;10.058;2023-02-15T14:47:36;5.60;92.88
67279;DHT22;54193;53.746;10.058;2023-02-15T14:56:21;5.58;93.08
67279;DHT22;54193;53.746;10.058;2023-02-15T14:59:16;5.48;93.11
67279;DHT22;54193;53.746;10.058;2023-02-15T15:02:12;5.48;93.11
67279;DHT22;54193;53.746;10.058;2023-02-15T15:05:20;5.48;93.29
67279;DHT22;54193;53.746;10.058;2023-02-15T15:08:41;5.39;93.22
67279;DHT22;54193;53.746;10.058;2023-02-15T15:14:40;5.34;93.38
67279;DHT22;54193;53.746;10.058;2023-02-15T15:26:23;5.26;93.43
67279;DHT22;54193;53.746;10.058;2023-02-15T15:29:09;5.23;93.50
67279;DHT22;54193;53.746;10.058;2023-02-15T15:31:55;5.17;93.51
67279;DHT22;54193;53.746;10.058;2023-02-15T15:34:54;5.11;93.56
67279;DHT22;54193;53.746;10.058;2023-02-15T15:37:57;5.06;93.67
67279;DHT22;54193;53.746;10.058;2023-02-15T15:50:20;4.84;93.88
67279;DHT22;54193;53.746;10.058;2023-02-15T15:53:06;4.83;94.03
67279;DHT22;54193;53.746;10.058;2023-02-15T15:56:02;4.76;94.05
67279;DHT22;54193;53.746;10.058;2023-02-15T15:58:55;4.72;94.07
67279;DHT22;54193;53.746;10.058;2023-02-15T16:01:43;4.71;94.19
67279;DHT22;54193;53.746;10.058;2023-02-15T16:04:32;4.66;94.18
67279;DHT22;54193;53.746;10.058;2023-02-15T16:10:07;4.58;94.38
67279;DHT22;54193;53.746;10.058;2023-02-15T16:13:05;4.52;94.41
67279;DHT22;54193;53.746;10.058;2023-02-15T16:15:54;4.46;94.46
67279;DHT22;54193;53.746;10.058;2023-02-15T16:18:40;4.46;94.46
67279;DHT22;54193;53.746;10.058;2023-02-15T16:21:35;4.41;94.54
67279;DHT22;54193;53.746;10.058;2023-02-15T16:27:44;4.34;94.70
67279;DHT22;54193;53.746;10.058;2023-02-15T16:30:33;4.27;94.74
67279;DHT22;54193;53.746;10.058;2023-02-15T16:33:19;4.21;94.78
67279;DHT22;54193;53.746;10.058;2023-02-15T16:36:19;4.24;94.88
67279;DHT22;54193;53.746;10.058;2023-02-15T16:39:16;4.17;94.95
67279;DHT22;54193;53.746;10.058;2023-02-15T16:42:03;4.14;94.99
67279;DHT22;54193;53.746;10.058;2023-02-15T16:45:13;4.13;95.06
67279;DHT22;54193;53.746;10.058;2023-02-15T16:48:01;4.08;95.08
67279;DHT22;54193;53.746;10.058;2023-02-15T16:50:53;4.07;95.08
67279;DHT22;54193;53.746;10.058;2023-02-15T16:53:40;4.11;95.21
67279;DHT22;54193;53.746;10.058;2023-02-15T16:56:30;4.06;95.13
67279;DHT22;54193;53.746;10.058;2023-02-15T16:59:34;3.91;95.03
67279;DHT22;54193;53.746;10.058;2023-02-15T17:02:26;3.89;95.07
67279;DHT22;54193;53.746;10.058;2023-02-15T17:05:14;3.85;95.05
67279;DHT22;54193;53.746;10.058;2023-02-15T17:08:12;3.82;95.08
67279;DHT22;54193;53.746;10.058;2023-02-15T17:14:11;3.85;95.12
67279;DHT22;54193;53.746;10.058;2023-02-15T17:17:04;3.80;95.02
67279;DHT22;54193;53.746;10.058;2023-02-15T17:19:53;3.65;94.98
67279;DHT22;54193;53.746;10.058;2023-02-15T17:22:40;3.70;95.08
67279;DHT22;54193;53.746;10.058;2023-02-15T17:25:35;3.72;94.96
67279;DHT22;54193;53.746;10.058;2023-02-15T17:28:24;3.65;94.84
67279;DHT22;54193;53.746;10.058;2023-02-15T17:31:13;3.51;94.89
67279;DHT22;54193;53.746;10.058;2023-02-15T17:34:00;3.28;95.29
67279;DHT22;54193;53.746;10.058;2023-02-15T17:36:58;3.27;95.09
67279;DHT22;54193;53.746;10.058;2023-02-15T17:39:44;3.11;95.04
67279;DHT22;54193;53.746;10.058;2023-02-15T17:42:30;3.14;95.11
67279;DHT22;54193;53.746;10.058;2023-02-15T17:45:16;3.59;95.43
67279;DHT22;54193;53.746;10.058;2023-02-15T17:48:05;3.65;95.43
67279;DHT22;54193;53.746;10.058;2023-02-15T17:50:51;3.60;95.35
67279;DHT22;54193;53.746;10.058;2023-02-15T17:53:37;3.43;95.31
67279;DHT22;54193;53.746;10.058;2023-02-15T17:56:23;3.39;95.50
67279;DHT22;54193;53.746;10.058;2023-02-15T17:59:08;3.21;95.43
67279;DHT22;54193;53.746;10.058;2023-02-15T18:01:56;3.05;95.32
67279;DHT22;54193;53.746;10.058;2023-02-15T18:05:01;2.93;95.34
67279;DHT22;54193;53.746;10.058;2023-02-15T18:08:10;3.32;95.63
67279;DHT22;54193;53.746;10.058;2023-02-15T18:11:15;3.31;95.63
67279;DHT22;54193;53.746;10.058;2023-02-15T18:14:19;3.24;95.61
67279;DHT22;54193;53.746;10.058;2023-02-15T18:17:10;3.21;95.52
67279;DHT22;54193;53.746;10.058;2023-02-15T18:19:57;3.11;95.53
67279;DHT22;54193;53.746;10.058;2023-02-15T18:22:43;3.14;95.56
67279;DHT22;54193;53.746;10.058;2023-02-15T18:25:30;3.10;95.58
67279;DHT22;54193;53.746;10.058;2023-02-15T18:28:16;3.03;95.51
67279;DHT22;54193;53.746;10.058;2023-02-15T18:31:02;3.00;95.40
67279;DHT22;54193;53.746;10.058;2023-02-15T18:33:50;3.01;95.52
67279;DHT22;54193;53.746;10.058;2023-02-15T18:36:43;3.10;95.67
67279;DHT22;54193;53.746;10.058;2023-02-15T18:39:38;3.07;95.62
67279;DHT22;54193;53.746;10.058;2023-02-15T18:42:27;2.99;95.49
67279;DHT22;54193;53.746;10.058;2023-02-15T18:48:00;2.94;95.41
67279;DHT22;54193;53.746;10.058;2023-02-15T18:50:46;2.86;95.49
67279;DHT22;54193;53.746;10.058;2023-02-15T18:53:32;2.90;95.56
67279;DHT22;54193;53.746;10.058;2023-02-15T18:56:20;2.97;95.61
67279;DHT22;54193;53.746;10.058;2023-02-15T18:59:13;2.94;95.62
67279;DHT22;54193;53.746;10.058;2023-02-15T19:01:59;2.99;95.64
67279;DHT22;54193;53.746;10.058;2023-02-15T19:04:46;2.93;95.52
67279;DHT22;54193;53.746;10.058;2023-02-15T19:07:32;2.90;95.62
67279;DHT22;54193;53.746;10.058;2023-02-15T19:10:22;2.87;95.52
67279;DHT22;54193;53.746;10.058;2023-02-15T19:13:09;2.84;95.52
67279;DHT22;54193;53.746;10.058;2023-02-15T19:15:55;2.84;95.53
67279;DHT22;54193;53.746;10.058;2023-02-15T19:18:41;2.77;95.41
67279;DHT22;54193;53.746;10.058;2023-02-15T19:21:29;2.60;95.33
67279;DHT22;54193;53.746;10.058;2023-02-15T19:24:39;2.63;95.50
67279;DHT22;54193;53.746;10.058;2023-02-15T19:27:32;2.76;95.54
67279;DHT22;54193;53.746;10.058;2023-02-15T19:30:28;2.79;95.44
67279;DHT22;54193;53.746;10.058;2023-02-15T19:33:19;2.84;95.49
67279;DHT22;54193;53.746;10.058;2023-02-15T19:36:06;2.80;95.44
67279;DHT22;54193;53.746;10.058;2023-02-15T19:38:58;2.82;95.50
67279;DHT22;54193;53.746;10.058;2023-02-15T19:41:43;2.76;95.46
67279;DHT22;54193;53.746;10.058;2023-02-15T19:44:29;2.65;95.40
67279;DHT22;54193;53.746;10.058;2023-02-15T19:47:15;2.49;95.59
67279;DHT22;54193;53.746;10.058;2023-02-15T19:50:01;2.32;95.83
67279;DHT22;54193;53.746;10.058;2023-02-15T19:52:48;1.59;95.38
67279;DHT22;54193;53.746;10.058;2023-02-15T19:55:34;1.55;95.67
67279;DHT22;54193;53.746;10.058;2023-02-15T19:58:22;1.56;95.69
67279;DHT22;54193;53.746;10.058;2023-02-15T20:01:07;1.60;95.69
67279;DHT22;54193;53.746;10.058;2023-02-15T20:03:53;1.59;95.60
67279;DHT22;54193;53.746;10.058;2023-02-15T20:06:40;1.45;95.60
67279;DHT22;54193;53.746;10.058;2023-02-15T20:09:29;1.51;95.46
67279;DHT22;54193;53.746;10.058;2023-02-15T20:12:19;1.49;95.52
67279;DHT22;54193;53.746;10.058;2023-02-15T20:15:33;1.55;95.57